createdAt,value
2019-04-10T00:00:44.303Z,9.60
2019-04-10T00:03:25.729Z,9.87
2019-04-10T00:05:47.966Z,9.37
2019-04-10T00:08:22.516Z,9.83
2019-04-10T00:10:52.182Z,9.60
2019-04-10T00:13:24.852Z,9.30
2019-04-10T00:15:56.981Z,9.03
2019-04-10T00:18:27.101Z,10.07
2019-04-10T00:20:58.673Z,8.87
2019-04-10T00:23:29.672Z,9.43
2019-04-10T00:26:01.342Z,9.50
2019-04-10T00:28:35.950Z,8.60
2019-04-10T00:31:09.483Z,9.00
2019-04-10T00:33:43.308Z,8.97
2019-04-10T00:36:14.136Z,8.60
2019-04-10T00:38:49.009Z,9.77
2019-04-10T00:41:24.297Z,8.43
2019-04-10T00:43:57.433Z,9.70
2019-04-10T00:46:28.314Z,8.30
2019-04-10T00:49:05.146Z,8.33
2019-04-10T00:51:35.714Z,8.70
2019-04-10T00:54:07.756Z,8.63
2019-04-10T00:56:41.654Z,8.53
2019-04-10T00:59:12.514Z,8.40
2019-04-10T01:01:43.718Z,8.47
2019-04-10T01:04:18.121Z,8.70
2019-04-10T01:06:55.308Z,8.33
2019-04-10T01:09:29.112Z,8.37
2019-04-10T01:12:03.938Z,8.27
2019-04-10T01:14:33.833Z,8.07
2019-04-10T01:17:08.307Z,7.60
2019-04-10T01:19:37.792Z,7.57
2019-04-10T01:22:07.125Z,7.57
2019-04-10T01:24:38.847Z,8.47
2019-04-10T01:27:09.771Z,8.10
2019-04-10T01:29:41.833Z,7.23
2019-04-10T01:32:12.001Z,6.93
2019-04-10T01:34:41.757Z,6.50
2019-04-10T01:37:22.935Z,7.27
2019-04-10T01:39:54.845Z,6.53
2019-04-10T01:42:24.845Z,6.73
2019-04-10T01:44:57.884Z,6.50
2019-04-10T01:47:31.019Z,6.20
2019-04-10T01:50:04.410Z,6.10
2019-04-10T01:52:35.147Z,5.93
2019-04-10T01:55:17.270Z,5.83
2019-04-10T01:57:40.781Z,5.57
2019-04-10T02:00:13.956Z,5.53
2019-04-10T02:02:51.538Z,5.63
2019-04-10T02:05:20.975Z,5.93
2019-04-10T02:08:01.756Z,5.53
2019-04-10T02:10:25.888Z,6.00
2019-04-10T02:12:55.167Z,5.37
2019-04-10T02:15:30.118Z,5.57
2019-04-10T02:18:05.601Z,5.50
2019-04-10T02:20:34.827Z,5.10
2019-04-10T02:23:05.933Z,5.13
2019-04-10T02:25:36.944Z,5.20
2019-04-10T02:28:06.887Z,5.20
2019-04-10T02:30:43.497Z,5.23
2019-04-10T02:33:17.862Z,4.90
2019-04-10T02:35:51.042Z,5.20
2019-04-10T02:38:47.809Z,5.37
2019-04-10T02:41:01.649Z,4.60
2019-04-10T02:43:37.825Z,4.90
2019-04-10T02:46:09.367Z,4.97
2019-04-10T02:48:41.521Z,5.17
2019-04-10T02:51:27.073Z,4.87
2019-04-10T02:53:58.046Z,4.70
2019-04-10T02:56:32.641Z,4.07
2019-04-10T02:59:05.493Z,4.80
2019-04-10T03:01:39.802Z,4.53
2019-04-10T03:04:11.854Z,4.40
2019-04-10T03:06:47.134Z,4.80
2019-04-10T03:09:37.023Z,4.87
2019-04-10T03:12:10.566Z,4.73
2019-04-10T03:14:41.565Z,4.73
2019-04-10T03:17:12.987Z,4.53
2019-04-10T03:19:43.517Z,4.80
2019-04-10T03:22:16.617Z,4.57
2019-04-10T03:24:50.669Z,5.83
2019-04-10T03:27:20.561Z,3.93
2019-04-10T03:29:50.314Z,4.07
2019-04-10T03:32:45.696Z,4.20
2019-04-10T03:35:19.168Z,3.87
2019-04-10T03:37:59.388Z,4.23
2019-04-10T03:40:29.279Z,4.20
2019-04-10T03:43:01.479Z,4.77
2019-04-10T03:45:41.008Z,3.83
2019-04-10T03:48:11.755Z,3.97
2019-04-10T03:50:52.359Z,4.00
2019-04-10T03:53:24.817Z,4.20
2019-04-10T03:55:59.125Z,3.97
2019-04-10T03:58:31.536Z,4.30
2019-04-10T04:01:04.877Z,4.07
2019-04-10T04:03:35.039Z,3.87
2019-04-10T04:06:15.530Z,4.10
2019-04-10T04:08:47.966Z,3.97
2019-04-10T04:11:23.945Z,3.90
2019-04-10T04:13:59.838Z,3.70
2019-04-10T04:16:45.088Z,3.60
2019-04-10T04:19:17.710Z,3.43
2019-04-10T04:21:48.444Z,4.17
2019-04-10T04:24:25.493Z,3.20
2019-04-10T04:27:00.524Z,3.90
2019-04-10T04:29:32.296Z,3.57
2019-04-10T04:32:04.962Z,3.70
2019-04-10T04:34:39.188Z,3.50
2019-04-10T04:37:12.167Z,4.40
2019-04-10T04:39:45.257Z,3.73
2019-04-10T04:42:17.928Z,3.50
2019-04-10T04:44:48.876Z,4.20
2019-04-10T04:47:20.264Z,4.30
2019-04-10T04:49:50.258Z,4.23
2019-04-10T04:52:21.609Z,4.13
2019-04-10T04:54:53.675Z,4.13
2019-04-10T04:57:24.837Z,4.00
2019-04-10T04:59:54.174Z,4.63
2019-04-10T05:02:23.272Z,4.23
2019-04-10T05:04:55.914Z,6.20
2019-04-10T05:07:25.274Z,4.03
2019-04-10T05:09:54.467Z,4.20
2019-04-10T05:13:08.133Z,3.90
2019-04-10T05:15:37.458Z,4.37
2019-04-10T05:18:06.690Z,5.00
2019-04-10T05:20:44.146Z,4.13
2019-04-10T05:23:06.898Z,4.47
2019-04-10T05:25:37.795Z,4.40
2019-04-10T05:28:07.817Z,4.27
2019-04-10T05:30:41.030Z,4.43
2019-04-10T05:33:10.414Z,4.43
2019-04-10T05:35:39.822Z,4.27
2019-04-10T05:38:10.193Z,4.00
2019-04-10T05:40:40.059Z,4.30
2019-04-10T05:43:11.518Z,4.07
2019-04-10T05:45:40.744Z,3.87
2019-04-10T05:48:10.996Z,4.40
2019-04-10T05:50:52.543Z,4.30
2019-04-10T05:53:11.983Z,4.07
2019-04-10T05:55:41.221Z,4.53
2019-04-10T05:58:10.329Z,4.53
2019-04-10T06:00:39.580Z,23.47
2019-04-10T06:03:12.308Z,4.87
2019-04-10T06:05:42.436Z,4.53
2019-04-10T06:08:11.950Z,4.00
2019-04-10T06:10:41.616Z,4.57
2019-04-10T06:13:11.000Z,4.57
2019-04-10T06:15:41.221Z,4.30
2019-04-10T06:18:11.098Z,4.40
2019-04-10T06:20:43.802Z,4.50
2019-04-10T06:23:13.174Z,4.80
2019-04-10T06:25:43.502Z,4.20
2019-04-10T06:28:13.009Z,4.10
2019-04-10T06:30:44.462Z,4.17
2019-04-10T06:33:37.041Z,4.47
2019-04-10T06:36:11.743Z,4.00
2019-04-10T06:38:47.714Z,3.63
2019-04-10T06:41:17.713Z,4.40
2019-04-10T06:44:13.956Z,4.27
2019-04-10T06:46:44.423Z,4.00
2019-04-10T06:49:19.226Z,4.20
2019-04-10T06:51:50.115Z,4.10
2019-04-10T06:54:20.512Z,4.40
2019-04-10T06:56:52.729Z,4.00
2019-04-10T06:59:23.277Z,3.83
2019-04-10T07:01:56.088Z,3.93
2019-04-10T07:04:26.755Z,4.03
2019-04-10T07:07:03.266Z,3.83
2019-04-10T07:09:27.231Z,4.00
2019-04-10T07:11:59.851Z,4.50
2019-04-10T07:14:28.710Z,3.73
2019-04-10T07:17:04.248Z,3.93
2019-04-10T07:19:28.978Z,4.20
2019-04-10T07:22:00.324Z,4.00
2019-04-10T07:24:34.534Z,3.63
2019-04-10T07:27:03.354Z,3.90
2019-04-10T07:29:31.390Z,3.37
2019-04-10T07:32:00.640Z,3.40
2019-04-10T07:34:30.006Z,3.50
2019-04-10T07:37:00.213Z,4.00
2019-04-10T07:39:32.527Z,3.77
2019-04-10T07:42:00.542Z,3.63
2019-04-10T07:44:29.673Z,3.30
2019-04-10T07:47:02.678Z,4.23
2019-04-10T07:49:32.978Z,3.60
2019-04-10T07:52:03.703Z,3.83
2019-04-10T07:54:33.250Z,3.90
2019-04-10T07:57:02.799Z,3.87
2019-04-10T07:59:31.993Z,3.50
2019-04-10T08:02:02.385Z,4.13
2019-04-10T08:04:31.859Z,3.70
2019-04-10T08:07:01.107Z,3.73
2019-04-10T08:09:30.421Z,3.87
2019-04-10T08:11:59.867Z,3.70
2019-04-10T08:14:29.473Z,3.57
2019-04-10T08:16:59.550Z,4.07
2019-04-10T08:19:29.424Z,4.60
2019-04-10T08:21:58.843Z,4.23
2019-04-10T08:24:28.093Z,4.00
2019-04-10T08:26:57.279Z,4.10
2019-04-10T08:29:26.441Z,4.20
2019-04-10T08:31:57.790Z,3.67
2019-04-10T08:34:28.091Z,4.17
2019-04-10T08:36:57.307Z,3.43
2019-04-10T08:39:33.987Z,3.70
2019-04-10T08:41:57.916Z,4.00
2019-04-10T08:44:27.790Z,4.33
2019-04-10T08:46:58.166Z,4.63
2019-04-10T08:49:28.277Z,4.17
2019-04-10T08:51:57.923Z,4.07
2019-04-10T08:54:28.090Z,4.17
2019-04-10T08:56:57.620Z,4.20
2019-04-10T08:59:27.727Z,3.97
2019-04-10T09:01:57.867Z,3.97
2019-04-10T09:04:27.152Z,3.80
2019-04-10T09:06:56.388Z,3.77
2019-04-10T09:09:25.771Z,3.70
2019-04-10T09:11:55.565Z,4.53
2019-04-10T09:14:25.235Z,4.47
2019-04-10T09:16:56.203Z,4.20
2019-04-10T09:19:25.683Z,4.17
2019-04-10T09:21:55.430Z,4.00
2019-04-10T09:24:25.777Z,4.30
2019-04-10T09:26:55.556Z,4.30
2019-04-10T09:29:25.721Z,3.97
2019-04-10T09:31:55.732Z,5.07
2019-04-10T09:34:25.596Z,4.27
2019-04-10T09:36:55.289Z,4.53
2019-04-10T09:39:25.400Z,4.47
2019-04-10T09:41:54.783Z,4.60
2019-04-10T09:44:24.017Z,5.00
2019-04-10T09:46:53.714Z,5.17
2019-04-10T09:49:33.576Z,4.53
2019-04-10T09:51:54.399Z,4.03
2019-04-10T09:54:23.999Z,4.57
2019-04-10T09:56:53.334Z,4.47
2019-04-10T09:59:32.918Z,4.80
2019-04-10T10:01:55.406Z,4.73
2019-04-10T10:04:25.797Z,4.93
2019-04-10T10:06:55.737Z,4.73
2019-04-10T10:09:26.064Z,4.93
2019-04-10T10:11:56.448Z,4.43
2019-04-10T10:14:33.412Z,5.13
2019-04-10T10:17:02.691Z,4.17
2019-04-10T10:19:32.205Z,4.30
2019-04-10T10:22:04.563Z,4.83
2019-04-10T10:24:35.099Z,5.23
2019-04-10T10:27:05.264Z,4.20
2019-04-10T10:29:35.545Z,4.17
2019-04-10T10:32:06.973Z,4.13
2019-04-10T10:34:36.703Z,3.73
2019-04-10T10:37:06.635Z,3.90
2019-04-10T10:39:37.001Z,3.93
2019-04-10T10:42:07.514Z,3.90
2019-04-10T10:44:40.383Z,4.17
2019-04-10T10:47:11.638Z,4.23
2019-04-10T10:49:41.060Z,3.57
2019-04-10T10:52:11.126Z,4.13
2019-04-10T10:54:41.076Z,3.70
2019-04-10T10:57:11.033Z,4.67
2019-04-10T10:59:40.412Z,3.87
2019-04-10T11:02:10.418Z,4.17
2019-04-10T11:04:39.982Z,3.93
2019-04-10T11:07:09.163Z,3.70
2019-04-10T11:09:40.114Z,3.83
2019-04-10T11:12:09.595Z,3.43
2019-04-10T11:14:39.572Z,3.63
2019-04-10T11:17:09.308Z,3.87
2019-04-10T11:19:39.502Z,3.33
2019-04-10T11:22:09.384Z,3.13
2019-04-10T11:24:40.758Z,3.50
2019-04-10T11:27:10.323Z,3.30
2019-04-10T11:29:40.719Z,3.27
2019-04-10T11:32:09.841Z,3.20
2019-04-10T11:34:40.589Z,2.97
2019-04-10T11:37:23.340Z,3.37
2019-04-10T11:39:43.462Z,3.13
2019-04-10T11:42:12.189Z,3.40
2019-04-10T11:44:45.105Z,3.07
2019-04-10T11:47:20.019Z,2.87
2019-04-10T11:49:57.640Z,3.10
2019-04-10T11:52:35.793Z,3.00
2019-04-10T11:55:06.042Z,3.17
2019-04-10T11:57:30.840Z,2.80
2019-04-10T12:00:01.181Z,3.33
2019-04-10T12:02:32.191Z,3.03
2019-04-10T12:05:07.434Z,3.00
2019-04-10T12:08:04.744Z,2.60
2019-04-10T12:12:33.420Z,2.90
2019-04-10T12:15:03.895Z,3.30
2019-04-10T12:17:33.891Z,2.97
2019-04-10T12:20:03.221Z,2.40
2019-04-10T12:22:32.337Z,2.50
2019-04-10T12:25:02.849Z,2.80
2019-04-10T12:27:33.436Z,2.73
2019-04-10T12:30:05.227Z,2.97
2019-04-10T12:32:34.451Z,2.70
2019-04-10T12:35:04.729Z,2.80
2019-04-10T12:37:34.981Z,2.90
2019-04-10T12:40:06.076Z,3.13
2019-04-10T12:42:36.450Z,3.00
2019-04-10T12:45:06.283Z,2.83
2019-04-10T12:47:35.563Z,3.07
2019-04-10T12:50:05.814Z,2.80
2019-04-10T12:52:35.140Z,2.60
2019-04-10T12:55:04.385Z,2.63
2019-04-10T12:57:33.530Z,2.97
2019-04-10T13:00:04.617Z,2.90
2019-04-10T13:02:34.360Z,2.70
2019-04-10T13:05:04.990Z,2.63
2019-04-10T13:07:34.304Z,2.90
2019-04-10T13:10:04.463Z,2.60
2019-04-10T13:12:33.730Z,2.97
2019-04-10T13:15:03.421Z,2.70
2019-04-10T13:17:33.189Z,2.60
2019-04-10T13:20:02.526Z,2.60
2019-04-10T13:22:31.867Z,2.50
2019-04-10T13:25:01.818Z,2.50
2019-04-10T13:27:31.239Z,2.63
2019-04-10T13:30:00.699Z,2.77
2019-04-10T13:32:29.999Z,2.53
2019-04-10T13:35:02.352Z,2.27
2019-04-10T13:37:31.713Z,2.50
2019-04-10T13:40:01.686Z,2.33
2019-04-10T13:42:31.605Z,2.30
2019-04-10T13:45:01.019Z,2.27
2019-04-10T13:47:30.501Z,2.37
2019-04-10T13:50:00.062Z,2.10
2019-04-10T13:52:29.387Z,2.27
2019-04-10T13:54:58.922Z,2.20
2019-04-10T13:57:28.658Z,1.90
2019-04-10T13:59:57.950Z,2.10
2019-04-10T14:02:32.252Z,1.80
2019-04-10T14:05:01.452Z,2.10
2019-04-10T14:07:31.627Z,2.40
2019-04-10T14:10:01.195Z,1.83
2019-04-10T14:12:31.193Z,2.20
2019-04-10T14:15:01.532Z,2.20
2019-04-10T14:17:30.862Z,2.17
2019-04-10T14:20:00.159Z,2.07
2019-04-10T14:22:29.527Z,2.33
2019-04-10T14:24:58.937Z,2.30
2019-04-10T14:27:30.183Z,2.07
2019-04-10T14:29:59.684Z,2.30
2019-04-10T14:32:36.175Z,2.00
2019-04-10T14:35:08.066Z,2.27
2019-04-10T14:37:41.327Z,1.80
2019-04-10T14:40:11.587Z,2.20
2019-04-10T14:42:41.041Z,2.30
2019-04-10T14:45:11.008Z,2.17
2019-04-10T14:47:41.281Z,2.00
2019-04-10T14:50:13.570Z,2.13
2019-04-10T14:52:45.331Z,1.70
2019-04-10T14:55:14.707Z,2.00
2019-04-10T14:57:43.917Z,2.13
2019-04-10T15:00:22.434Z,1.87
2019-04-10T15:02:51.874Z,2.03
2019-04-10T15:05:21.705Z,2.07
2019-04-10T15:07:51.147Z,2.10
2019-04-10T15:10:20.419Z,2.03
2019-04-10T15:12:49.892Z,2.13
2019-04-10T15:15:19.204Z,2.20
2019-04-10T15:17:48.736Z,2.17
2019-04-10T15:20:18.056Z,2.40
2019-04-10T15:22:47.705Z,2.10
2019-04-10T15:25:17.255Z,1.93
2019-04-10T15:27:46.697Z,2.10
2019-04-10T15:30:16.059Z,1.83
2019-04-10T15:32:45.466Z,1.80
2019-04-10T15:35:15.904Z,1.97
2019-04-10T15:37:45.709Z,2.20
2019-04-10T15:40:20.817Z,1.73
2019-04-10T15:42:48.141Z,1.83
2019-04-10T15:45:18.148Z,2.30
2019-04-10T15:47:54.231Z,2.00
2019-04-10T15:50:20.203Z,2.10
2019-04-10T15:52:51.477Z,2.30
2019-04-10T15:55:23.695Z,1.70
2019-04-10T15:57:59.081Z,2.00
2019-04-10T16:00:27.394Z,1.73
2019-04-10T16:02:57.338Z,2.10
2019-04-10T16:05:29.340Z,1.80
2019-04-10T16:07:58.724Z,2.40
2019-04-10T16:10:50.432Z,1.90
2019-04-10T16:13:25.162Z,1.93
2019-04-10T16:15:54.811Z,2.13
2019-04-10T16:18:24.986Z,2.43
2019-04-10T16:20:54.903Z,2.90
2019-04-10T16:23:35.802Z,2.80
2019-04-10T16:26:07.493Z,2.63
2019-04-10T16:28:37.570Z,2.50
2019-04-10T16:31:07.564Z,2.10
2019-04-10T16:33:36.975Z,2.60
2019-04-10T16:36:06.315Z,2.77
2019-04-10T16:38:36.436Z,2.27
2019-04-10T16:41:05.778Z,2.30
2019-04-10T16:43:36.180Z,2.50
2019-04-10T16:46:05.571Z,2.80
2019-04-10T16:48:35.859Z,2.70
2019-04-10T16:51:05.404Z,2.73
2019-04-10T16:53:34.786Z,2.80
2019-04-10T16:56:07.329Z,2.47
2019-04-10T16:58:38.391Z,2.70
2019-04-10T17:01:08.452Z,3.03
2019-04-10T17:03:38.041Z,3.07
2019-04-10T17:06:08.235Z,2.70
2019-04-10T17:08:38.856Z,2.67
2019-04-10T17:11:09.169Z,3.07
2019-04-10T17:13:38.659Z,2.80
2019-04-10T17:16:07.907Z,2.60
2019-04-10T17:18:37.161Z,2.93
2019-04-10T17:21:06.439Z,2.77
2019-04-10T17:23:36.400Z,3.17
2019-04-10T17:26:09.276Z,3.30
2019-04-10T17:28:38.705Z,3.00
2019-04-10T17:31:09.116Z,2.60
2019-04-10T17:33:38.529Z,2.80
2019-04-10T17:36:07.880Z,2.20
2019-04-10T17:38:37.038Z,2.40
2019-04-10T17:41:07.208Z,2.40
2019-04-10T17:43:37.344Z,2.13
2019-04-10T17:46:11.094Z,2.20
2019-04-10T17:48:41.956Z,2.30
2019-04-10T17:51:12.114Z,2.60
2019-04-10T17:53:41.967Z,2.20
2019-04-10T17:56:15.864Z,2.40
2019-04-10T17:58:45.612Z,2.10
2019-04-10T18:01:16.999Z,2.60
2019-04-10T18:03:53.099Z,2.90
2019-04-10T18:06:21.369Z,2.97
2019-04-10T18:08:53.548Z,2.60
2019-04-10T18:11:25.053Z,2.60
2019-04-10T18:13:57.223Z,2.17
2019-04-10T18:16:27.604Z,2.33
2019-04-10T18:18:57.452Z,2.40
2019-04-10T18:21:28.769Z,2.63
2019-04-10T18:24:00.614Z,2.30
2019-04-10T18:26:33.955Z,2.03
2019-04-10T18:29:05.786Z,1.97
2019-04-10T18:31:35.363Z,2.43
2019-04-10T18:34:10.145Z,2.10
2019-04-10T18:36:40.526Z,1.80
2019-04-10T18:39:16.779Z,1.67
2019-04-10T18:41:48.570Z,2.20
2019-04-10T18:44:20.586Z,2.07
2019-04-10T18:46:52.325Z,2.07
2019-04-10T18:49:21.524Z,2.20
2019-04-10T18:51:51.187Z,2.20
2019-04-10T18:54:22.908Z,2.10
2019-04-10T18:56:53.532Z,2.03
2019-04-10T18:59:51.141Z,2.30
2019-04-10T19:02:55.164Z,1.70
2019-04-10T19:05:28.180Z,1.67
2019-04-10T19:07:58.746Z,1.90
2019-04-10T19:10:30.646Z,2.00
2019-04-10T19:13:01.937Z,2.20
2019-04-10T19:15:32.853Z,1.97
2019-04-10T19:18:02.230Z,2.00
2019-04-10T19:20:31.760Z,2.03
2019-04-10T19:23:41.638Z,2.43
2019-04-10T19:26:15.452Z,2.70
2019-04-10T19:28:50.778Z,2.13
2019-04-10T19:31:24.353Z,2.50
2019-04-10T19:33:53.254Z,1.93
2019-04-10T19:36:23.822Z,2.40
2019-04-10T19:38:53.829Z,2.40
2019-04-10T19:41:29.624Z,2.43
2019-04-10T19:43:54.964Z,2.43
2019-04-10T19:46:25.899Z,3.13
2019-04-10T19:49:03.858Z,2.63
2019-04-10T19:51:30.203Z,2.40
2019-04-10T19:54:02.695Z,2.90
2019-04-10T19:56:36.997Z,2.53
2019-04-10T19:59:06.391Z,2.57
2019-04-10T20:01:36.085Z,3.00
2019-04-10T20:04:05.624Z,2.80
2019-04-10T20:06:38.665Z,2.87
2019-04-10T20:09:12.496Z,3.20
2019-04-10T20:11:46.644Z,3.10
2019-04-10T20:14:17.832Z,3.47
2019-04-10T20:16:53.453Z,3.27
2019-04-10T20:19:26.639Z,2.93
2019-04-10T20:21:58.542Z,2.90
2019-04-10T20:24:31.205Z,3.20
2019-04-10T20:27:01.583Z,3.03
2019-04-10T20:29:35.007Z,3.00
2019-04-10T20:32:06.220Z,3.00
2019-04-10T20:34:38.115Z,3.33
2019-04-10T20:37:11.453Z,3.50
2019-04-10T20:39:41.299Z,3.27
2019-04-10T20:42:11.650Z,3.20
2019-04-10T20:44:45.039Z,3.03
2019-04-10T20:47:23.107Z,2.83
2019-04-10T20:50:03.960Z,3.17
2019-04-10T20:52:34.562Z,3.13
2019-04-10T20:55:05.685Z,3.20
2019-04-10T20:57:35.584Z,3.20
2019-04-10T21:00:10.501Z,3.47
2019-04-10T21:02:44.783Z,3.73
2019-04-10T21:05:16.104Z,4.20
2019-04-10T21:07:50.186Z,4.03
2019-04-10T21:10:19.637Z,4.10
2019-04-10T21:12:56.588Z,3.77
2019-04-10T21:15:27.852Z,3.70
2019-04-10T21:18:02.708Z,3.70
2019-04-10T21:20:38.242Z,3.53
2019-04-10T21:23:07.469Z,3.50
2019-04-10T21:25:42.047Z,3.77
2019-04-10T21:28:16.205Z,3.90
2019-04-10T21:31:07.934Z,4.40
2019-04-10T21:34:03.551Z,4.23
2019-04-10T21:36:34.959Z,3.80
2019-04-10T21:39:09.486Z,4.10
2019-04-10T21:41:44.590Z,3.60
2019-04-10T21:44:33.660Z,3.80
2019-04-10T21:47:03.771Z,4.40
2019-04-10T21:49:36.060Z,4.13
2019-04-10T21:52:09.707Z,3.60
2019-04-10T21:54:49.474Z,4.07
2019-04-10T21:57:14.565Z,4.20
2019-04-10T21:59:51.926Z,4.00
2019-04-10T22:02:23.808Z,4.40
2019-04-10T22:05:00.578Z,4.33
2019-04-10T22:07:56.676Z,4.27
2019-04-10T22:10:41.952Z,3.97
2019-04-10T22:13:26.032Z,3.80
2019-04-10T22:15:59.677Z,4.10
2019-04-10T22:18:41.450Z,4.03
2019-04-10T22:21:10.880Z,4.33
2019-04-10T22:23:40.608Z,4.20
2019-04-10T22:26:13.828Z,3.97
2019-04-10T22:28:44.091Z,4.63
2019-04-10T22:31:18.155Z,4.17
2019-04-10T22:33:58.754Z,4.20
2019-04-10T22:36:35.325Z,4.73
2019-04-10T22:39:11.505Z,4.30
2019-04-10T22:41:41.161Z,4.83
2019-04-10T22:44:19.742Z,4.30
2019-04-10T22:46:55.867Z,4.40
2019-04-10T22:49:30.752Z,4.97
2019-04-10T22:52:03.235Z,4.20
2019-04-10T22:54:32.660Z,4.43
2019-04-10T22:57:04.776Z,4.53
2019-04-10T22:59:38.235Z,4.23
2019-04-10T23:02:11.657Z,4.50
2019-04-10T23:04:39.636Z,5.13
2019-04-10T23:07:30.838Z,4.27
2019-04-10T23:10:02.583Z,4.90
2019-04-10T23:12:49.712Z,4.33
2019-04-10T23:15:09.184Z,4.17
2019-04-10T23:17:39.128Z,4.93
2019-04-10T23:20:12.724Z,4.50
2019-04-10T23:22:43.166Z,4.60
2019-04-10T23:25:16.120Z,4.63
2019-04-10T23:27:53.442Z,4.07
2019-04-10T23:30:24.787Z,4.40
2019-04-10T23:33:01.594Z,4.53
2019-04-10T23:35:33.720Z,4.80
2019-04-10T23:38:04.861Z,3.87
2019-04-10T23:40:34.822Z,5.37
2019-04-10T23:43:12.932Z,3.90
2019-04-10T23:45:38.127Z,4.70
2019-04-10T23:48:08.870Z,4.53
2019-04-10T23:50:42.798Z,4.67
2019-04-10T23:53:17.281Z,4.80
2019-04-10T23:55:55.243Z,4.33
2019-04-10T23:58:24.633Z,5.00
